Wetterdaten: aktuell Freitag, 03.12.2021 03:00
Datum Zeit Temp. Feuchte Luftdruck Regen Wind Richtung Richtung Sonnenschein UV Solar Taupunkt Windchill Windben
03.12.2021 03:00 0.1 C 90 % 1014.1 hPa 0.0 mm 0.8 km/h W-SW 248 0 min 0.0 UV-I 0.0 W/m -1.3 C 0.1 C 3.2 km/h
03.12.2021 02:00 -0.1 C 89 % 1013.1 hPa 0.0 mm 1.6 km/h W-SW 248 0 min 0.0 UV-I 0.0 W/m -1.7 C -0.1 C 3.2 km/h
03.12.2021 01:00 -0.3 C 88 % 1012.2 hPa 0.0 mm 3.0 km/h S-SO 162 0 min 0.0 UV-I 0.0 W/m -2.0 C -0.3 C 6.4 km/h
03.12.2021 00:00 0.2 C 87 % 1011.9 hPa 0.0 mm 1.4 km/h W 261 0 min 0.0 UV-I 0.0 W/m -1.7 C 0.2 C 3.2 km/h
02.12.2021 23:00 0.7 C 88 % 1011.2 hPa 0.0 mm 4.1 km/h W-SW 245 0 min 0.0 UV-I 0.0 W/m -1.1 C 0.7 C 8.0 km/h
02.12.2021 22:00 0.9 C 88 % 1010.4 hPa 0.0 mm 4.3 km/h W-SW 251 0 min 0.0 UV-I 0.0 W/m -0.9 C 0.9 C 11.3 km/h
02.12.2021 21:00 1.1 C 88 % 1009.3 hPa 0.0 mm 6.1 km/h SW 234 0 min 0.0 UV-I 0.0 W/m -0.7 C -0.8 C 12.9 km/h
02.12.2021 20:00 1.3 C 89 % 1008.6 hPa 0.0 mm 7.8 km/h W-NW 283 0 min 0.0 UV-I 0.0 W/m -0.3 C -1.2 C 16.1 km/h
02.12.2021 19:00 1.2 C 90 % 1007.3 hPa 0.0 mm 6.6 km/h SW 216 0 min 0.0 UV-I 0.0 W/m -0.3 C -0.9 C 11.3 km/h
02.12.2021 18:00 1.6 C 89 % 1005.9 hPa 0.0 mm 8.3 km/h W-SW 244 0 min 0.0 UV-I 0.0 W/m -0.0 C -0.9 C 19.3 km/h
02.12.2021 17:00 2.3 C 85 % 1004.2 hPa 0.0 mm 8.5 km/h W-SW 250 0 min 0.0 UV-I 0.0 W/m 0.0 C -0.2 C 19.3 km/h
02.12.2021 16:00 2.5 C 85 % 1002.9 hPa 0.0 mm 6.2 km/h W 263 0 min 0.0 UV-I 9.0 W/m 0.2 C 0.8 C 25.7 km/h
02.12.2021 15:00 3.1 C 88 % 1001.7 hPa 0.2 mm 4.8 km/h W-NW 290 0 min 0.0 UV-I 28.0 W/m 1.3 C 2.0 C 16.1 km/h
02.12.2021 14:00 4.9 C 87 % 1000.5 hPa 0.4 mm 11.1 km/h W-SW 240 0 min 0.0 UV-I 54.0 W/m 2.9 C 2.3 C 24.1 km/h
02.12.2021 13:00 5.8 C 89 % 1000.6 hPa 0.0 mm 8.9 km/h S-SW 213 40 min 0.0 UV-I 213.0 W/m 4.1 C 3.9 C 16.1 km/h
02.12.2021 12:00 5.1 C 89 % 1001.5 hPa 0.0 mm 7.2 km/h SW 224 0 min 0.0 UV-I 84.0 W/m 3.4 C 3.5 C 16.1 km/h
02.12.2021 11:00 5.2 C 89 % 1002.2 hPa 0.0 mm 7.0 km/h SW 228 10 min 0.0 UV-I 137.0 W/m 3.5 C 3.6 C 16.1 km/h
02.12.2021 10:00 4.6 C 93 % 1002.3 hPa 0.0 mm 7.1 km/h W-SW 242 0 min 0.0 UV-I 105.0 W/m 3.6 C 2.9 C 16.1 km/h
02.12.2021 09:00 3.3 C 94 % 1002.3 hPa 0.0 mm 2.6 km/h W 263 0 min 0.0 UV-I 70.0 W/m 2.4 C 3.3 C 6.4 km/h
02.12.2021 08:00 3.0 C 93 % 1001.9 hPa 0.0 mm 2.6 km/h W 274 0 min 0.0 UV-I 0.0 W/m 2.0 C 3.0 C 6.4 km/h
02.12.2021 07:00 3.1 C 93 % 1001.8 hPa 0.0 mm 0.0 km/h SW 219 0 min 0.0 UV-I 0.0 W/m 2.1 C 3.1 C 0.0 km/h
02.12.2021 06:00 3.9 C 93 % 1001.9 hPa 0.0 mm 1.1 km/h SW 219 0 min 0.0 UV-I 0.0 W/m 2.9 C 3.9 C 6.4 km/h
02.12.2021 05:00 4.3 C 93 % 1002.1 hPa 0.0 mm 5.9 km/h W-SW 245 0 min 0.0 UV-I 0.0 W/m 3.3 C 3.0 C 11.3 km/h
02.12.2021 04:00 4.7 C 93 % 1002.3 hPa 0.0 mm 2.7 km/h W 277 0 min 0.0 UV-I 0.0 W/m 3.7 C 4.7 C 4.8 km/h
_ Min-Zeit 00:40 15:50 13:20 - 06:10 - - - - - 00:40 20:40 06:10
Minimum _ -0.3 C 85 % 1000.4 hPa - 0.0 km/h - - - - - -2.0 C -2.1 C 0.0 km/h
_ Max-Zeit 13:00 05:10 02:50 14:00 14:20 - - 10:10 12:30 13:00 13:00 04:00 14:40
Maximum _ 5.8 C 94 % 1014.1 hPa 0.4 mm 13.9 km/h
W-SW
- - 10 min 0.5 UV-I 213.0 W/m 4.1 C 4.7 C 37.0 km/h
W
Durchschnitt _ 2.7 C 90 % 1005.2 hPa #0.6 mm 5.0 km/h W-SW - #0 min. 0.0 UV-I 0.0 W/m 1.3 C 1.7 C 11.2 km/h